sensor_id;sensor_type;location;lat;lon;timestamp;P1;durP1;ratioP1;P2;durP2;ratioP2
50709;SDS011;37033;49.994;21.992;2023-01-25T00:00:55;32.50;;;14.50;;
50709;SDS011;37033;49.994;21.992;2023-01-25T00:03:52;26.20;;;13.90;;
50709;SDS011;37033;49.994;21.992;2023-01-25T00:06:42;29.50;;;15.20;;
50709;SDS011;37033;49.994;21.992;2023-01-25T00:09:32;33.70;;;17.20;;
50709;SDS011;37033;49.994;21.992;2023-01-25T00:12:22;35.40;;;15.60;;
50709;SDS011;37033;49.994;21.992;2023-01-25T00:15:12;30.60;;;14.60;;
50709;SDS011;37033;49.994;21.992;2023-01-25T00:18:03;30.30;;;15.00;;
50709;SDS011;37033;49.994;21.992;2023-01-25T00:20:53;24.60;;;12.60;;
50709;SDS011;37033;49.994;21.992;2023-01-25T00:23:42;25.10;;;14.10;;
50709;SDS011;37033;49.994;21.992;2023-01-25T00:26:33;26.90;;;13.50;;
50709;SDS011;37033;49.994;21.992;2023-01-25T00:29:24;28.00;;;14.20;;
50709;SDS011;37033;49.994;21.992;2023-01-25T00:32:36;35.00;;;14.60;;
50709;SDS011;37033;49.994;21.992;2023-01-25T00:35:35;29.70;;;13.20;;
50709;SDS011;37033;49.994;21.992;2023-01-25T00:38:27;26.30;;;13.40;;
50709;SDS011;37033;49.994;21.992;2023-01-25T00:41:21;27.50;;;13.70;;
50709;SDS011;37033;49.994;21.992;2023-01-25T00:44:11;30.00;;;13.70;;
50709;SDS011;37033;49.994;21.992;2023-01-25T00:47:01;29.00;;;15.10;;
50709;SDS011;37033;49.994;21.992;2023-01-25T00:49:52;22.60;;;13.60;;
50709;SDS011;37033;49.994;21.992;2023-01-25T00:52:42;27.10;;;12.80;;
50709;SDS011;37033;49.994;21.992;2023-01-25T00:55:32;31.90;;;14.80;;
50709;SDS011;37033;49.994;21.992;2023-01-25T00:58:22;27.40;;;13.40;;
50709;SDS011;37033;49.994;21.992;2023-01-25T01:01:12;22.20;;;10.80;;
50709;SDS011;37033;49.994;21.992;2023-01-25T01:04:03;21.60;;;12.00;;
50709;SDS011;37033;49.994;21.992;2023-01-25T01:06:53;21.30;;;10.50;;
50709;SDS011;37033;49.994;21.992;2023-01-25T01:09:43;17.30;;;9.80;;
50709;SDS011;37033;49.994;21.992;2023-01-25T01:12:33;19.20;;;10.50;;
50709;SDS011;37033;49.994;21.992;2023-01-25T01:15:23;20.90;;;10.60;;
50709;SDS011;37033;49.994;21.992;2023-01-25T01:18:13;16.50;;;9.60;;
50709;SDS011;37033;49.994;21.992;2023-01-25T01:21:03;19.10;;;10.20;;
50709;SDS011;37033;49.994;21.992;2023-01-25T01:23:55;14.00;;;8.50;;
50709;SDS011;37033;49.994;21.992;2023-01-25T01:26:44;15.80;;;8.90;;
50709;SDS011;37033;49.994;21.992;2023-01-25T01:29:35;16.70;;;8.80;;
50709;SDS011;37033;49.994;21.992;2023-01-25T01:32:24;17.90;;;9.40;;
50709;SDS011;37033;49.994;21.992;2023-01-25T01:35:14;14.20;;;8.80;;
50709;SDS011;37033;49.994;21.992;2023-01-25T01:38:04;17.20;;;9.60;;
50709;SDS011;37033;49.994;21.992;2023-01-25T01:40:53;19.60;;;11.20;;
50709;SDS011;37033;49.994;21.992;2023-01-25T01:43:43;21.50;;;10.30;;
50709;SDS011;37033;49.994;21.992;2023-01-25T01:46:34;19.10;;;10.30;;
50709;SDS011;37033;49.994;21.992;2023-01-25T01:49:26;21.30;;;10.30;;
50709;SDS011;37033;49.994;21.992;2023-01-25T01:52:19;19.50;;;10.90;;
50709;SDS011;37033;49.994;21.992;2023-01-25T01:55:11;19.60;;;10.80;;
50709;SDS011;37033;49.994;21.992;2023-01-25T01:58:05;17.20;;;9.80;;
50709;SDS011;37033;49.994;21.992;2023-01-25T02:00:55;20.30;;;10.40;;
50709;SDS011;37033;49.994;21.992;2023-01-25T02:03:45;22.20;;;10.30;;
50709;SDS011;37033;49.994;21.992;2023-01-25T02:06:38;18.70;;;10.80;;
50709;SDS011;37033;49.994;21.992;2023-01-25T02:09:34;18.10;;;9.70;;
50709;SDS011;37033;49.994;21.992;2023-01-25T02:12:24;20.30;;;8.90;;
50709;SDS011;37033;49.994;21.992;2023-01-25T02:15:15;22.90;;;10.50;;
50709;SDS011;37033;49.994;21.992;2023-01-25T02:18:05;22.90;;;12.00;;
50709;SDS011;37033;49.994;21.992;2023-01-25T02:20:57;18.80;;;9.90;;
50709;SDS011;37033;49.994;21.992;2023-01-25T02:23:50;22.20;;;10.60;;
50709;SDS011;37033;49.994;21.992;2023-01-25T02:26:46;24.00;;;11.70;;
50709;SDS011;37033;49.994;21.992;2023-01-25T02:29:36;21.60;;;12.30;;
50709;SDS011;37033;49.994;21.992;2023-01-25T02:32:26;24.60;;;13.20;;
50709;SDS011;37033;49.994;21.992;2023-01-25T02:35:20;26.40;;;12.40;;
50709;SDS011;37033;49.994;21.992;2023-01-25T02:38:12;27.60;;;13.30;;
50709;SDS011;37033;49.994;21.992;2023-01-25T02:41:05;24.10;;;12.40;;
50709;SDS011;37033;49.994;21.992;2023-01-25T02:43:59;24.90;;;13.50;;
50709;SDS011;37033;49.994;21.992;2023-01-25T02:46:50;31.70;;;13.70;;
50709;SDS011;37033;49.994;21.992;2023-01-25T02:49:40;24.00;;;12.70;;
50709;SDS011;37033;49.994;21.992;2023-01-25T02:52:30;25.80;;;12.90;;
50709;SDS011;37033;49.994;21.992;2023-01-25T02:55:20;24.40;;;11.80;;
50709;SDS011;37033;49.994;21.992;2023-01-25T02:58:10;26.90;;;13.90;;
50709;SDS011;37033;49.994;21.992;2023-01-25T03:01:00;27.10;;;13.60;;
50709;SDS011;37033;49.994;21.992;2023-01-25T03:03:50;26.70;;;13.40;;
50709;SDS011;37033;49.994;21.992;2023-01-25T03:06:40;26.00;;;13.00;;
50709;SDS011;37033;49.994;21.992;2023-01-25T03:09:30;22.20;;;12.60;;
50709;SDS011;37033;49.994;21.992;2023-01-25T03:12:20;27.10;;;13.60;;
50709;SDS011;37033;49.994;21.992;2023-01-25T03:15:10;23.80;;;12.60;;
50709;SDS011;37033;49.994;21.992;2023-01-25T03:18:00;25.20;;;12.50;;
50709;SDS011;37033;49.994;21.992;2023-01-25T03:20:50;31.00;;;15.50;;
50709;SDS011;37033;49.994;21.992;2023-01-25T03:23:39;26.70;;;14.30;;
50709;SDS011;37033;49.994;21.992;2023-01-25T03:26:31;24.60;;;12.80;;
50709;SDS011;37033;49.994;21.992;2023-01-25T03:29:41;28.90;;;14.50;;
50709;SDS011;37033;49.994;21.992;2023-01-25T03:32:31;25.90;;;13.40;;
50709;SDS011;37033;49.994;21.992;2023-01-25T03:35:21;31.30;;;14.60;;
50709;SDS011;37033;49.994;21.992;2023-01-25T03:38:11;29.60;;;13.80;;
50709;SDS011;37033;49.994;21.992;2023-01-25T03:41:02;33.80;;;15.60;;
50709;SDS011;37033;49.994;21.992;2023-01-25T03:43:53;31.40;;;15.20;;
50709;SDS011;37033;49.994;21.992;2023-01-25T03:46:43;31.40;;;14.20;;
50709;SDS011;37033;49.994;21.992;2023-01-25T03:49:33;28.70;;;13.20;;
50709;SDS011;37033;49.994;21.992;2023-01-25T03:52:26;28.10;;;13.10;;
50709;SDS011;37033;49.994;21.992;2023-01-25T03:55:36;28.20;;;14.40;;
50709;SDS011;37033;49.994;21.992;2023-01-25T03:58:27;34.10;;;14.80;;
50709;SDS011;37033;49.994;21.992;2023-01-25T04:01:17;33.50;;;13.10;;
50709;SDS011;37033;49.994;21.992;2023-01-25T04:04:07;34.30;;;14.40;;
50709;SDS011;37033;49.994;21.992;2023-01-25T04:06:57;28.90;;;13.70;;
50709;SDS011;37033;49.994;21.992;2023-01-25T04:09:47;30.00;;;13.80;;
50709;SDS011;37033;49.994;21.992;2023-01-25T04:12:37;26.80;;;13.20;;
50709;SDS011;37033;49.994;21.992;2023-01-25T04:15:28;29.40;;;14.30;;
50709;SDS011;37033;49.994;21.992;2023-01-25T04:18:18;25.30;;;11.90;;
50709;SDS011;37033;49.994;21.992;2023-01-25T04:21:08;28.30;;;12.80;;
50709;SDS011;37033;49.994;21.992;2023-01-25T04:23:58;27.70;;;12.80;;
50709;SDS011;37033;49.994;21.992;2023-01-25T04:26:48;29.20;;;13.60;;
50709;SDS011;37033;49.994;21.992;2023-01-25T04:29:38;27.10;;;13.00;;
50709;SDS011;37033;49.994;21.992;2023-01-25T04:32:28;29.60;;;14.90;;
50709;SDS011;37033;49.994;21.992;2023-01-25T04:35:18;39.70;;;17.30;;
50709;SDS011;37033;49.994;21.992;2023-01-25T04:38:09;41.40;;;17.30;;
50709;SDS011;37033;49.994;21.992;2023-01-25T04:40:59;41.10;;;17.80;;
50709;SDS011;37033;49.994;21.992;2023-01-25T04:43:51;31.10;;;15.00;;
50709;SDS011;37033;49.994;21.992;2023-01-25T04:46:41;35.10;;;15.60;;
50709;SDS011;37033;49.994;21.992;2023-01-25T04:49:31;26.30;;;13.30;;
50709;SDS011;37033;49.994;21.992;2023-01-25T04:52:21;124.30;;;50.90;;
50709;SDS011;37033;49.994;21.992;2023-01-25T04:55:11;29.80;;;14.80;;
50709;SDS011;37033;49.994;21.992;2023-01-25T04:58:02;28.50;;;14.40;;
50709;SDS011;37033;49.994;21.992;2023-01-25T05:00:51;32.70;;;14.40;;
50709;SDS011;37033;49.994;21.992;2023-01-25T05:03:41;30.00;;;14.30;;
50709;SDS011;37033;49.994;21.992;2023-01-25T05:06:31;30.00;;;14.70;;
50709;SDS011;37033;49.994;21.992;2023-01-25T05:09:21;30.30;;;15.30;;
50709;SDS011;37033;49.994;21.992;2023-01-25T05:12:11;30.70;;;15.60;;
50709;SDS011;37033;49.994;21.992;2023-01-25T05:15:01;28.00;;;15.30;;
50709;SDS011;37033;49.994;21.992;2023-01-25T05:17:52;25.50;;;13.70;;
50709;SDS011;37033;49.994;21.992;2023-01-25T05:20:41;26.60;;;13.80;;
50709;SDS011;37033;49.994;21.992;2023-01-25T05:23:31;31.40;;;15.40;;
50709;SDS011;37033;49.994;21.992;2023-01-25T05:26:21;35.10;;;17.20;;
50709;SDS011;37033;49.994;21.992;2023-01-25T05:29:30;32.50;;;16.40;;
50709;SDS011;37033;49.994;21.992;2023-01-25T05:32:23;33.90;;;15.90;;
50709;SDS011;37033;49.994;21.992;2023-01-25T05:35:13;31.20;;;15.50;;
50709;SDS011;37033;49.994;21.992;2023-01-25T05:38:03;34.60;;;16.90;;
50709;SDS011;37033;49.994;21.992;2023-01-25T05:40:56;30.00;;;15.30;;
50709;SDS011;37033;49.994;21.992;2023-01-25T05:43:48;33.10;;;15.40;;
50709;SDS011;37033;49.994;21.992;2023-01-25T05:46:38;30.80;;;15.50;;
50709;SDS011;37033;49.994;21.992;2023-01-25T05:49:28;33.00;;;15.70;;
50709;SDS011;37033;49.994;21.992;2023-01-25T05:52:19;36.30;;;16.80;;
50709;SDS011;37033;49.994;21.992;2023-01-25T05:55:09;32.10;;;16.10;;
50709;SDS011;37033;49.994;21.992;2023-01-25T05:58:00;32.50;;;15.60;;
50709;SDS011;37033;49.994;21.992;2023-01-25T06:00:50;33.50;;;16.80;;
50709;SDS011;37033;49.994;21.992;2023-01-25T06:03:40;28.50;;;15.80;;
50709;SDS011;37033;49.994;21.992;2023-01-25T06:06:30;33.90;;;16.10;;
50709;SDS011;37033;49.994;21.992;2023-01-25T06:09:20;35.50;;;16.30;;
50709;SDS011;37033;49.994;21.992;2023-01-25T06:12:11;35.00;;;16.00;;
50709;SDS011;37033;49.994;21.992;2023-01-25T06:15:02;32.90;;;16.40;;
50709;SDS011;37033;49.994;21.992;2023-01-25T06:17:54;36.60;;;16.70;;
50709;SDS011;37033;49.994;21.992;2023-01-25T06:20:45;36.60;;;15.90;;
50709;SDS011;37033;49.994;21.992;2023-01-25T06:23:35;32.90;;;15.90;;
50709;SDS011;37033;49.994;21.992;2023-01-25T06:26:25;35.70;;;16.50;;
50709;SDS011;37033;49.994;21.992;2023-01-25T06:29:15;39.50;;;17.10;;
50709;SDS011;37033;49.994;21.992;2023-01-25T06:32:05;37.50;;;17.10;;
50709;SDS011;37033;49.994;21.992;2023-01-25T06:34:55;36.20;;;17.00;;
50709;SDS011;37033;49.994;21.992;2023-01-25T06:37:45;41.80;;;17.30;;
50709;SDS011;37033;49.994;21.992;2023-01-25T06:40:36;43.20;;;18.20;;
50709;SDS011;37033;49.994;21.992;2023-01-25T06:43:26;40.30;;;19.60;;
50709;SDS011;37033;49.994;21.992;2023-01-25T06:46:17;40.20;;;19.20;;
50709;SDS011;37033;49.994;21.992;2023-01-25T06:49:08;42.50;;;19.20;;
50709;SDS011;37033;49.994;21.992;2023-01-25T06:51:59;41.70;;;18.40;;
50709;SDS011;37033;49.994;21.992;2023-01-25T06:54:49;36.20;;;18.10;;
50709;SDS011;37033;49.994;21.992;2023-01-25T06:57:39;36.10;;;17.00;;
50709;SDS011;37033;49.994;21.992;2023-01-25T07:00:29;43.80;;;18.60;;
50709;SDS011;37033;49.994;21.992;2023-01-25T07:03:19;34.90;;;16.90;;
50709;SDS011;37033;49.994;21.992;2023-01-25T07:06:09;40.10;;;17.90;;
50709;SDS011;37033;49.994;21.992;2023-01-25T07:09:02;45.60;;;18.50;;
50709;SDS011;37033;49.994;21.992;2023-01-25T07:11:53;38.00;;;18.70;;
50709;SDS011;37033;49.994;21.992;2023-01-25T07:14:44;42.00;;;17.60;;
50709;SDS011;37033;49.994;21.992;2023-01-25T07:17:35;46.30;;;19.30;;
50709;SDS011;37033;49.994;21.992;2023-01-25T07:20:25;38.90;;;19.10;;
50709;SDS011;37033;49.994;21.992;2023-01-25T07:23:14;44.70;;;20.90;;
50709;SDS011;37033;49.994;21.992;2023-01-25T07:26:05;40.10;;;20.00;;
50709;SDS011;37033;49.994;21.992;2023-01-25T07:29:01;44.90;;;20.70;;
50709;SDS011;37033;49.994;21.992;2023-01-25T07:31:51;48.30;;;22.00;;
50709;SDS011;37033;49.994;21.992;2023-01-25T07:34:41;51.00;;;22.50;;
50709;SDS011;37033;49.994;21.992;2023-01-25T07:37:31;48.10;;;22.30;;
50709;SDS011;37033;49.994;21.992;2023-01-25T07:40:22;51.90;;;22.60;;
50709;SDS011;37033;49.994;21.992;2023-01-25T07:43:11;51.40;;;24.40;;
50709;SDS011;37033;49.994;21.992;2023-01-25T07:46:01;55.60;;;25.10;;
50709;SDS011;37033;49.994;21.992;2023-01-25T07:48:52;55.40;;;23.50;;
50709;SDS011;37033;49.994;21.992;2023-01-25T07:51:44;38.20;;;18.00;;
50709;SDS011;37033;49.994;21.992;2023-01-25T07:54:35;39.10;;;18.10;;
50709;SDS011;37033;49.994;21.992;2023-01-25T07:57:25;35.50;;;17.50;;
50709;SDS011;37033;49.994;21.992;2023-01-25T08:00:15;40.50;;;17.90;;
50709;SDS011;37033;49.994;21.992;2023-01-25T08:03:06;43.80;;;18.50;;
50709;SDS011;37033;49.994;21.992;2023-01-25T08:05:57;40.40;;;19.00;;
50709;SDS011;37033;49.994;21.992;2023-01-25T08:08:47;47.10;;;21.50;;
50709;SDS011;37033;49.994;21.992;2023-01-25T08:11:37;28.70;;;15.10;;
50709;SDS011;37033;49.994;21.992;2023-01-25T08:14:28;33.70;;;17.30;;
50709;SDS011;37033;49.994;21.992;2023-01-25T08:17:18;32.50;;;16.30;;
50709;SDS011;37033;49.994;21.992;2023-01-25T08:20:10;32.60;;;17.30;;
50709;SDS011;37033;49.994;21.992;2023-01-25T08:23:01;47.70;;;21.10;;
50709;SDS011;37033;49.994;21.992;2023-01-25T08:25:52;52.80;;;24.00;;
50709;SDS011;37033;49.994;21.992;2023-01-25T08:28:42;42.40;;;19.80;;
50709;SDS011;37033;49.994;21.992;2023-01-25T08:31:33;54.10;;;25.60;;
50709;SDS011;37033;49.994;21.992;2023-01-25T08:34:24;45.30;;;21.80;;
50709;SDS011;37033;49.994;21.992;2023-01-25T08:37:17;39.30;;;19.60;;
50709;SDS011;37033;49.994;21.992;2023-01-25T08:40:08;42.60;;;21.40;;
50709;SDS011;37033;49.994;21.992;2023-01-25T08:42:59;45.10;;;22.00;;
50709;SDS011;37033;49.994;21.992;2023-01-25T08:45:56;50.60;;;24.90;;
50709;SDS011;37033;49.994;21.992;2023-01-25T08:48:47;54.00;;;22.90;;
50709;SDS011;37033;49.994;21.992;2023-01-25T08:51:40;45.20;;;21.00;;
50709;SDS011;37033;49.994;21.992;2023-01-25T08:54:30;48.40;;;23.10;;
50709;SDS011;37033;49.994;21.992;2023-01-25T08:57:21;45.90;;;22.50;;
50709;SDS011;37033;49.994;21.992;2023-01-25T09:00:13;46.60;;;23.50;;
50709;SDS011;37033;49.994;21.992;2023-01-25T09:03:04;42.80;;;21.80;;
50709;SDS011;37033;49.994;21.992;2023-01-25T09:05:55;47.50;;;22.70;;
50709;SDS011;37033;49.994;21.992;2023-01-25T09:08:46;45.60;;;21.60;;
50709;SDS011;37033;49.994;21.992;2023-01-25T09:11:36;43.00;;;21.50;;
50709;SDS011;37033;49.994;21.992;2023-01-25T09:14:26;48.00;;;21.30;;
50709;SDS011;37033;49.994;21.992;2023-01-25T09:17:17;40.00;;;17.40;;
50709;SDS011;37033;49.994;21.992;2023-01-25T09:20:08;30.10;;;16.60;;
50709;SDS011;37033;49.994;21.992;2023-01-25T09:22:58;35.30;;;16.80;;
50709;SDS011;37033;49.994;21.992;2023-01-25T09:25:54;35.30;;;16.60;;
50709;SDS011;37033;49.994;21.992;2023-01-25T09:28:47;42.50;;;18.80;;
50709;SDS011;37033;49.994;21.992;2023-01-25T09:31:39;39.50;;;20.00;;
50709;SDS011;37033;49.994;21.992;2023-01-25T09:34:29;43.60;;;20.10;;
50709;SDS011;37033;49.994;21.992;2023-01-25T09:37:19;50.40;;;21.00;;
50709;SDS011;37033;49.994;21.992;2023-01-25T09:40:12;45.70;;;20.30;;
50709;SDS011;37033;49.994;21.992;2023-01-25T09:43:11;58.90;;;22.80;;
50709;SDS011;37033;49.994;21.992;2023-01-25T09:46:12;41.90;;;19.40;;
50709;SDS011;37033;49.994;21.992;2023-01-25T09:49:26;23.10;;;13.00;;
50709;SDS011;37033;49.994;21.992;2023-01-25T09:52:28;20.50;;;12.20;;
50709;SDS011;37033;49.994;21.992;2023-01-25T09:55:36;19.50;;;11.10;;
50709;SDS011;37033;49.994;21.992;2023-01-25T09:58:29;20.80;;;12.00;;
50709;SDS011;37033;49.994;21.992;2023-01-25T10:01:26;19.80;;;11.00;;
50709;SDS011;37033;49.994;21.992;2023-01-25T10:04:23;23.80;;;12.70;;
50709;SDS011;37033;49.994;21.992;2023-01-25T10:07:17;22.90;;;11.70;;
50709;SDS011;37033;49.994;21.992;2023-01-25T10:10:12;22.10;;;11.40;;
50709;SDS011;37033;49.994;21.992;2023-01-25T10:13:07;16.00;;;10.40;;
50709;SDS011;37033;49.994;21.992;2023-01-25T10:16:01;18.80;;;10.50;;
50709;SDS011;37033;49.994;21.992;2023-01-25T10:18:58;14.30;;;9.30;;
50709;SDS011;37033;49.994;21.992;2023-01-25T10:22:00;20.40;;;10.30;;
50709;SDS011;37033;49.994;21.992;2023-01-25T10:25:04;15.10;;;9.70;;
50709;SDS011;37033;49.994;21.992;2023-01-25T10:28:19;16.20;;;10.50;;
50709;SDS011;37033;49.994;21.992;2023-01-25T10:31:21;17.40;;;10.00;;
50709;SDS011;37033;49.994;21.992;2023-01-25T10:34:20;12.00;;;8.10;;
50709;SDS011;37033;49.994;21.992;2023-01-25T10:37:14;17.90;;;10.70;;
50709;SDS011;37033;49.994;21.992;2023-01-25T10:40:11;14.90;;;9.90;;
50709;SDS011;37033;49.994;21.992;2023-01-25T10:43:06;16.60;;;9.30;;
50709;SDS011;37033;49.994;21.992;2023-01-25T10:46:03;18.70;;;10.40;;
50709;SDS011;37033;49.994;21.992;2023-01-25T10:49:08;13.70;;;8.90;;
50709;SDS011;37033;49.994;21.992;2023-01-25T10:52:13;19.20;;;10.20;;
50709;SDS011;37033;49.994;21.992;2023-01-25T10:55:13;18.00;;;10.00;;
50709;SDS011;37033;49.994;21.992;2023-01-25T10:58:27;14.50;;;10.30;;
50709;SDS011;37033;49.994;21.992;2023-01-25T11:01:27;15.40;;;10.30;;
50709;SDS011;37033;49.994;21.992;2023-01-25T11:07:28;15.80;;;9.50;;
50709;SDS011;37033;49.994;21.992;2023-01-25T11:10:26;14.90;;;9.80;;
50709;SDS011;37033;49.994;21.992;2023-01-25T11:13:20;19.00;;;10.00;;
50709;SDS011;37033;49.994;21.992;2023-01-25T11:16:24;19.20;;;11.90;;
50709;SDS011;37033;49.994;21.992;2023-01-25T11:19:36;23.00;;;13.90;;
50709;SDS011;37033;49.994;21.992;2023-01-25T11:22:27;39.30;;;18.20;;
50709;SDS011;37033;49.994;21.992;2023-01-25T11:25:28;32.50;;;15.70;;
50709;SDS011;37033;49.994;21.992;2023-01-25T11:28:20;30.40;;;15.10;;
50709;SDS011;37033;49.994;21.992;2023-01-25T11:31:12;23.80;;;12.30;;
50709;SDS011;37033;49.994;21.992;2023-01-25T11:34:06;19.70;;;10.70;;
50709;SDS011;37033;49.994;21.992;2023-01-25T11:37:04;19.90;;;10.80;;
50709;SDS011;37033;49.994;21.992;2023-01-25T11:40:11;15.80;;;9.50;;
50709;SDS011;37033;49.994;21.992;2023-01-25T11:43:11;16.00;;;9.60;;
50709;SDS011;37033;49.994;21.992;2023-01-25T11:46:24;14.80;;;9.80;;
50709;SDS011;37033;49.994;21.992;2023-01-25T11:49:33;19.90;;;11.00;;
50709;SDS011;37033;49.994;21.992;2023-01-25T11:52:34;11.60;;;8.20;;
50709;SDS011;37033;49.994;21.992;2023-01-25T11:55:36;13.80;;;8.80;;
50709;SDS011;37033;49.994;21.992;2023-01-25T11:58:37;17.60;;;9.20;;
50709;SDS011;37033;49.994;21.992;2023-01-25T12:01:39;21.20;;;11.80;;
50709;SDS011;37033;49.994;21.992;2023-01-25T12:08:14;27.40;;;13.50;;
50709;SDS011;37033;49.994;21.992;2023-01-25T12:11:19;25.10;;;12.40;;
50709;SDS011;37033;49.994;21.992;2023-01-25T12:14:21;17.60;;;11.40;;
50709;SDS011;37033;49.994;21.992;2023-01-25T12:17:21;18.70;;;10.50;;
50709;SDS011;37033;49.994;21.992;2023-01-25T12:20:27;20.50;;;11.20;;
50709;SDS011;37033;49.994;21.992;2023-01-25T12:23:28;20.20;;;11.60;;
50709;SDS011;37033;49.994;21.992;2023-01-25T12:26:36;22.70;;;11.40;;
50709;SDS011;37033;49.994;21.992;2023-01-25T12:29:34;23.60;;;13.30;;
50709;SDS011;37033;49.994;21.992;2023-01-25T12:32:32;27.70;;;13.90;;
50709;SDS011;37033;49.994;21.992;2023-01-25T12:35:29;31.70;;;15.30;;
50709;SDS011;37033;49.994;21.992;2023-01-25T12:38:25;26.40;;;14.00;;
50709;SDS011;37033;49.994;21.992;2023-01-25T12:41:24;25.80;;;12.40;;
50709;SDS011;37033;49.994;21.992;2023-01-25T12:44:20;17.40;;;9.70;;
50709;SDS011;37033;49.994;21.992;2023-01-25T12:47:17;16.50;;;9.10;;
50709;SDS011;37033;49.994;21.992;2023-01-25T12:50:14;20.50;;;10.70;;
50709;SDS011;37033;49.994;21.992;2023-01-25T12:53:09;45.10;;;15.40;;
50709;SDS011;37033;49.994;21.992;2023-01-25T12:56:05;24.00;;;12.90;;
50709;SDS011;37033;49.994;21.992;2023-01-25T12:59:00;25.00;;;14.80;;
50709;SDS011;37033;49.994;21.992;2023-01-25T13:02:00;29.60;;;15.80;;
50709;SDS011;37033;49.994;21.992;2023-01-25T13:05:00;31.50;;;16.60;;
50709;SDS011;37033;49.994;21.992;2023-01-25T13:08:01;24.50;;;14.40;;
50709;SDS011;37033;49.994;21.992;2023-01-25T13:11:00;24.90;;;13.60;;
50709;SDS011;37033;49.994;21.992;2023-01-25T13:17:23;22.80;;;12.10;;
50709;SDS011;37033;49.994;21.992;2023-01-25T13:20:47;20.60;;;13.10;;
50709;SDS011;37033;49.994;21.992;2023-01-25T13:23:41;22.80;;;12.20;;
50709;SDS011;37033;49.994;21.992;2023-01-25T13:29:47;36.00;;;15.00;;
50709;SDS011;37033;49.994;21.992;2023-01-25T13:35:52;17.50;;;11.10;;
50709;SDS011;37033;49.994;21.992;2023-01-25T13:38:42;24.20;;;12.50;;
50709;SDS011;37033;49.994;21.992;2023-01-25T13:41:32;21.40;;;11.20;;
50709;SDS011;37033;49.994;21.992;2023-01-25T13:44:22;15.10;;;9.10;;
50709;SDS011;37033;49.994;21.992;2023-01-25T13:47:15;17.30;;;8.90;;
50709;SDS011;37033;49.994;21.992;2023-01-25T13:50:12;12.50;;;7.90;;
50709;SDS011;37033;49.994;21.992;2023-01-25T13:53:16;13.20;;;7.50;;
50709;SDS011;37033;49.994;21.992;2023-01-25T13:56:20;12.00;;;7.80;;
50709;SDS011;37033;49.994;21.992;2023-01-25T13:59:24;12.50;;;8.00;;
50709;SDS011;37033;49.994;21.992;2023-01-25T14:02:16;15.50;;;8.90;;
50709;SDS011;37033;49.994;21.992;2023-01-25T14:05:17;20.70;;;10.30;;
50709;SDS011;37033;49.994;21.992;2023-01-25T14:08:09;21.10;;;11.70;;
50709;SDS011;37033;49.994;21.992;2023-01-25T14:10:59;25.20;;;12.60;;
50709;SDS011;37033;49.994;21.992;2023-01-25T14:13:57;24.40;;;12.20;;
50709;SDS011;37033;49.994;21.992;2023-01-25T14:17:00;22.10;;;12.80;;
50709;SDS011;37033;49.994;21.992;2023-01-25T14:20:00;17.40;;;11.00;;
50709;SDS011;37033;49.994;21.992;2023-01-25T14:23:04;26.90;;;14.00;;
50709;SDS011;37033;49.994;21.992;2023-01-25T14:26:20;24.70;;;12.30;;
50709;SDS011;37033;49.994;21.992;2023-01-25T14:29:16;21.70;;;11.80;;
50709;SDS011;37033;49.994;21.992;2023-01-25T14:32:12;24.10;;;12.20;;
50709;SDS011;37033;49.994;21.992;2023-01-25T14:38:21;20.80;;;12.00;;
50709;SDS011;37033;49.994;21.992;2023-01-25T14:41:17;27.40;;;12.20;;
50709;SDS011;37033;49.994;21.992;2023-01-25T14:44:11;43.10;;;20.20;;
50709;SDS011;37033;49.994;21.992;2023-01-25T14:47:25;26.40;;;12.80;;
50709;SDS011;37033;49.994;21.992;2023-01-25T14:50:31;42.20;;;19.80;;
50709;SDS011;37033;49.994;21.992;2023-01-25T14:53:23;24.40;;;11.80;;
50709;SDS011;37033;49.994;21.992;2023-01-25T14:56:17;23.60;;;12.50;;
50709;SDS011;37033;49.994;21.992;2023-01-25T14:59:21;32.20;;;17.30;;
50709;SDS011;37033;49.994;21.992;2023-01-25T15:02:17;34.30;;;14.90;;
50709;SDS011;37033;49.994;21.992;2023-01-25T15:05:17;18.70;;;10.00;;
50709;SDS011;37033;49.994;21.992;2023-01-25T15:08:14;21.90;;;11.80;;
50709;SDS011;37033;49.994;21.992;2023-01-25T15:11:30;27.40;;;13.30;;
50709;SDS011;37033;49.994;21.992;2023-01-25T15:14:45;21.00;;;11.80;;
50709;SDS011;37033;49.994;21.992;2023-01-25T15:17:38;38.00;;;18.40;;
50709;SDS011;37033;49.994;21.992;2023-01-25T15:20:31;34.00;;;15.40;;
50709;SDS011;37033;49.994;21.992;2023-01-25T15:23:25;17.70;;;9.80;;
50709;SDS011;37033;49.994;21.992;2023-01-25T15:26:20;16.40;;;9.40;;
50709;SDS011;37033;49.994;21.992;2023-01-25T15:29:12;25.40;;;12.10;;
50709;SDS011;37033;49.994;21.992;2023-01-25T15:32:07;21.90;;;11.60;;
50709;SDS011;37033;49.994;21.992;2023-01-25T15:35:10;23.60;;;12.10;;
50709;SDS011;37033;49.994;21.992;2023-01-25T15:38:01;16.00;;;9.10;;
50709;SDS011;37033;49.994;21.992;2023-01-25T15:40:52;16.40;;;8.70;;
50709;SDS011;37033;49.994;21.992;2023-01-25T15:43:47;14.20;;;8.10;;
50709;SDS011;37033;49.994;21.992;2023-01-25T15:46:38;14.80;;;8.20;;
50709;SDS011;37033;49.994;21.992;2023-01-25T15:49:31;15.60;;;8.00;;
50709;SDS011;37033;49.994;21.992;2023-01-25T15:52:25;17.90;;;9.00;;
50709;SDS011;37033;49.994;21.992;2023-01-25T15:55:15;14.50;;;7.80;;
50709;SDS011;37033;49.994;21.992;2023-01-25T15:58:05;18.90;;;8.40;;
50709;SDS011;37033;49.994;21.992;2023-01-25T16:00:57;9.80;;;6.50;;
50709;SDS011;37033;49.994;21.992;2023-01-25T16:03:47;9.10;;;5.70;;
50709;SDS011;37033;49.994;21.992;2023-01-25T16:06:38;7.50;;;5.70;;
50709;SDS011;37033;49.994;21.992;2023-01-25T16:09:30;13.70;;;8.20;;
50709;SDS011;37033;49.994;21.992;2023-01-25T16:12:20;18.80;;;10.40;;
50709;SDS011;37033;49.994;21.992;2023-01-25T16:15:12;19.80;;;10.70;;
50709;SDS011;37033;49.994;21.992;2023-01-25T16:18:02;16.50;;;9.80;;
50709;SDS011;37033;49.994;21.992;2023-01-25T16:20:53;21.00;;;10.10;;
50709;SDS011;37033;49.994;21.992;2023-01-25T16:23:43;11.10;;;6.90;;
50709;SDS011;37033;49.994;21.992;2023-01-25T16:26:33;11.40;;;6.90;;
50709;SDS011;37033;49.994;21.992;2023-01-25T16:29:25;10.90;;;6.20;;
50709;SDS011;37033;49.994;21.992;2023-01-25T16:32:16;11.70;;;6.10;;
50709;SDS011;37033;49.994;21.992;2023-01-25T16:35:07;17.70;;;9.20;;
50709;SDS011;37033;49.994;21.992;2023-01-25T16:37:57;14.50;;;8.70;;
50709;SDS011;37033;49.994;21.992;2023-01-25T16:40:47;14.40;;;9.10;;
50709;SDS011;37033;49.994;21.992;2023-01-25T16:43:37;21.10;;;11.60;;
50709;SDS011;37033;49.994;21.992;2023-01-25T16:46:28;22.80;;;12.40;;
50709;SDS011;37033;49.994;21.992;2023-01-25T16:49:19;22.00;;;9.10;;
50709;SDS011;37033;49.994;21.992;2023-01-25T16:52:12;24.70;;;12.20;;
50709;SDS011;37033;49.994;21.992;2023-01-25T16:55:02;17.70;;;9.60;;
50709;SDS011;37033;49.994;21.992;2023-01-25T16:57:52;15.00;;;9.10;;
50709;SDS011;37033;49.994;21.992;2023-01-25T17:00:41;14.40;;;7.90;;
50709;SDS011;37033;49.994;21.992;2023-01-25T17:03:31;13.60;;;8.10;;